sensor_id;sensor_type;location;lat;lon;timestamp;pressure;altitude;pressure_sealevel;temperature
41593;BMP180;28026;48.562;14.440;2024-01-25T00:02:22;94335.00;;;12.50
41593;BMP180;28026;48.562;14.440;2024-01-25T00:04:52;94322.00;;;12.50
41593;BMP180;28026;48.562;14.440;2024-01-25T00:07:23;94334.00;;;12.50
41593;BMP180;28026;48.562;14.440;2024-01-25T00:09:54;94327.00;;;12.50
41593;BMP180;28026;48.562;14.440;2024-01-25T00:12:25;94329.00;;;12.40
41593;BMP180;28026;48.562;14.440;2024-01-25T00:14:56;94327.00;;;12.40
41593;BMP180;28026;48.562;14.440;2024-01-25T00:17:27;94339.00;;;12.40
41593;BMP180;28026;48.562;14.440;2024-01-25T00:19:57;94332.00;;;12.40
41593;BMP180;28026;48.562;14.440;2024-01-25T00:22:28;94343.00;;;12.50
41593;BMP180;28026;48.562;14.440;2024-01-25T00:24:59;94333.00;;;12.40
41593;BMP180;28026;48.562;14.440;2024-01-25T00:27:30;94338.00;;;12.40
41593;BMP180;28026;48.562;14.440;2024-01-25T00:30:01;94337.00;;;12.40
41593;BMP180;28026;48.562;14.440;2024-01-25T00:32:32;94320.00;;;12.40
41593;BMP180;28026;48.562;14.440;2024-01-25T00:35:03;94337.00;;;12.40
41593;BMP180;28026;48.562;14.440;2024-01-25T00:37:36;94334.00;;;12.40
41593;BMP180;28026;48.562;14.440;2024-01-25T00:40:08;94320.00;;;12.40
41593;BMP180;28026;48.562;14.440;2024-01-25T00:42:44;94312.00;;;12.40
41593;BMP180;28026;48.562;14.440;2024-01-25T00:45:20;94327.00;;;12.40
41593;BMP180;28026;48.562;14.440;2024-01-25T00:47:53;94337.00;;;12.40
41593;BMP180;28026;48.562;14.440;2024-01-25T00:50:24;94332.00;;;12.30
41593;BMP180;28026;48.562;14.440;2024-01-25T00:52:56;94333.00;;;12.40
41593;BMP180;28026;48.562;14.440;2024-01-25T00:55:28;94344.00;;;12.40
41593;BMP180;28026;48.562;14.440;2024-01-25T00:57:59;94329.00;;;12.40
41593;BMP180;28026;48.562;14.440;2024-01-25T01:00:31;94344.00;;;12.30
41593;BMP180;28026;48.562;14.440;2024-01-25T01:03:04;94341.00;;;12.30
41593;BMP180;28026;48.562;14.440;2024-01-25T01:05:36;94340.00;;;12.30
41593;BMP180;28026;48.562;14.440;2024-01-25T01:08:07;94350.00;;;12.30
41593;BMP180;28026;48.562;14.440;2024-01-25T01:10:39;94347.00;;;12.30
41593;BMP180;28026;48.562;14.440;2024-01-25T01:13:10;94333.00;;;12.30
41593;BMP180;28026;48.562;14.440;2024-01-25T01:15:40;94352.00;;;12.20
41593;BMP180;28026;48.562;14.440;2024-01-25T01:18:11;94345.00;;;12.20
41593;BMP180;28026;48.562;14.440;2024-01-25T01:20:42;94337.00;;;12.20
41593;BMP180;28026;48.562;14.440;2024-01-25T01:23:13;94340.00;;;12.20
41593;BMP180;28026;48.562;14.440;2024-01-25T01:25:44;94347.00;;;12.20
41593;BMP180;28026;48.562;14.440;2024-01-25T01:28:15;94345.00;;;12.20
41593;BMP180;28026;48.562;14.440;2024-01-25T01:30:46;94348.00;;;12.20
41593;BMP180;28026;48.562;14.440;2024-01-25T01:33:16;94341.00;;;12.20
41593;BMP180;28026;48.562;14.440;2024-01-25T01:35:47;94337.00;;;12.20
41593;BMP180;28026;48.562;14.440;2024-01-25T01:38:18;94322.00;;;12.20
41593;BMP180;28026;48.562;14.440;2024-01-25T01:40:49;94321.00;;;12.20
41593;BMP180;28026;48.562;14.440;2024-01-25T01:43:20;94339.00;;;12.20
41593;BMP180;28026;48.562;14.440;2024-01-25T01:46:03;94332.00;;;12.10
41593;BMP180;28026;48.562;14.440;2024-01-25T01:48:40;94326.00;;;12.10
41593;BMP180;28026;48.562;14.440;2024-01-25T01:51:12;94329.00;;;12.10
41593;BMP180;28026;48.562;14.440;2024-01-25T01:53:43;94340.00;;;12.10
41593;BMP180;28026;48.562;14.440;2024-01-25T01:56:15;94340.00;;;12.10
41593;BMP180;28026;48.562;14.440;2024-01-25T01:58:47;94339.00;;;12.10
41593;BMP180;28026;48.562;14.440;2024-01-25T02:01:20;94344.00;;;12.10
41593;BMP180;28026;48.562;14.440;2024-01-25T02:03:52;94342.00;;;12.10
41593;BMP180;28026;48.562;14.440;2024-01-25T02:06:26;94338.00;;;12.10
41593;BMP180;28026;48.562;14.440;2024-01-25T02:08:58;94346.00;;;12.10
41593;BMP180;28026;48.562;14.440;2024-01-25T02:11:29;94342.00;;;12.10
41593;BMP180;28026;48.562;14.440;2024-01-25T02:14:00;94350.00;;;12.10
41593;BMP180;28026;48.562;14.440;2024-01-25T02:16:31;94342.00;;;12.10
41593;BMP180;28026;48.562;14.440;2024-01-25T02:19:02;94346.00;;;12.10
41593;BMP180;28026;48.562;14.440;2024-01-25T02:21:32;94348.00;;;12.10
41593;BMP180;28026;48.562;14.440;2024-01-25T02:24:04;94353.00;;;12.10
41593;BMP180;28026;48.562;14.440;2024-01-25T02:26:36;94353.00;;;12.10
41593;BMP180;28026;48.562;14.440;2024-01-25T02:29:07;94338.00;;;12.10
41593;BMP180;28026;48.562;14.440;2024-01-25T02:31:38;94351.00;;;12.10
41593;BMP180;28026;48.562;14.440;2024-01-25T02:34:09;94338.00;;;12.10
41593;BMP180;28026;48.562;14.440;2024-01-25T02:36:40;94337.00;;;12.10
41593;BMP180;28026;48.562;14.440;2024-01-25T02:39:11;94334.00;;;12.10
41593;BMP180;28026;48.562;14.440;2024-01-25T02:41:42;94341.00;;;12.10
41593;BMP180;28026;48.562;14.440;2024-01-25T02:44:13;94329.00;;;12.10
41593;BMP180;28026;48.562;14.440;2024-01-25T02:46:44;94318.00;;;12.00
41593;BMP180;28026;48.562;14.440;2024-01-25T02:49:16;94310.00;;;12.00
41593;BMP180;28026;48.562;14.440;2024-01-25T02:51:47;94312.00;;;12.00
41593;BMP180;28026;48.562;14.440;2024-01-25T02:54:18;94325.00;;;12.00
41593;BMP180;28026;48.562;14.440;2024-01-25T02:56:49;94317.00;;;12.00
41593;BMP180;28026;48.562;14.440;2024-01-25T02:59:20;94316.00;;;12.00
41593;BMP180;28026;48.562;14.440;2024-01-25T03:01:52;94301.00;;;12.00
41593;BMP180;28026;48.562;14.440;2024-01-25T03:04:24;94294.00;;;12.00
41593;BMP180;28026;48.562;14.440;2024-01-25T03:06:55;94292.00;;;12.00
41593;BMP180;28026;48.562;14.440;2024-01-25T03:09:26;94286.00;;;12.00
41593;BMP180;28026;48.562;14.440;2024-01-25T03:11:57;94288.00;;;12.00
41593;BMP180;28026;48.562;14.440;2024-01-25T03:14:28;94300.00;;;12.00
41593;BMP180;28026;48.562;14.440;2024-01-25T03:16:59;94296.00;;;12.00
41593;BMP180;28026;48.562;14.440;2024-01-25T03:19:30;94294.00;;;12.00
41593;BMP180;28026;48.562;14.440;2024-01-25T03:22:01;94299.00;;;11.90
41593;BMP180;28026;48.562;14.440;2024-01-25T03:24:32;94303.00;;;11.90
41593;BMP180;28026;48.562;14.440;2024-01-25T03:27:03;94300.00;;;11.90
41593;BMP180;28026;48.562;14.440;2024-01-25T03:29:34;94297.00;;;11.90
41593;BMP180;28026;48.562;14.440;2024-01-25T03:32:05;94294.00;;;11.90
41593;BMP180;28026;48.562;14.440;2024-01-25T03:34:36;94293.00;;;12.00
41593;BMP180;28026;48.562;14.440;2024-01-25T03:37:07;94285.00;;;11.90
41593;BMP180;28026;48.562;14.440;2024-01-25T03:39:38;94282.00;;;11.90
41593;BMP180;28026;48.562;14.440;2024-01-25T03:42:09;94289.00;;;11.90
41593;BMP180;28026;48.562;14.440;2024-01-25T03:44:40;94272.00;;;11.90
41593;BMP180;28026;48.562;14.440;2024-01-25T03:47:12;94277.00;;;11.90
41593;BMP180;28026;48.562;14.440;2024-01-25T03:49:44;94295.00;;;11.90
41593;BMP180;28026;48.562;14.440;2024-01-25T03:52:15;94293.00;;;11.90
41593;BMP180;28026;48.562;14.440;2024-01-25T03:54:46;94296.00;;;11.90
41593;BMP180;28026;48.562;14.440;2024-01-25T03:57:17;94280.00;;;11.90
41593;BMP180;28026;48.562;14.440;2024-01-25T03:59:48;94282.00;;;12.00
41593;BMP180;28026;48.562;14.440;2024-01-25T04:02:19;94285.00;;;11.90
41593;BMP180;28026;48.562;14.440;2024-01-25T04:04:50;94286.00;;;11.90
41593;BMP180;28026;48.562;14.440;2024-01-25T04:07:20;94267.00;;;11.90
41593;BMP180;28026;48.562;14.440;2024-01-25T04:09:51;94287.00;;;11.90
41593;BMP180;28026;48.562;14.440;2024-01-25T04:12:22;94292.00;;;11.90
41593;BMP180;28026;48.562;14.440;2024-01-25T04:14:55;94292.00;;;11.90
41593;BMP180;28026;48.562;14.440;2024-01-25T04:17:26;94307.00;;;11.90
41593;BMP180;28026;48.562;14.440;2024-01-25T04:19:57;94301.00;;;11.90
41593;BMP180;28026;48.562;14.440;2024-01-25T04:22:27;94283.00;;;11.90
41593;BMP180;28026;48.562;14.440;2024-01-25T04:24:58;94300.00;;;11.90
41593;BMP180;28026;48.562;14.440;2024-01-25T04:27:29;94283.00;;;11.90
41593;BMP180;28026;48.562;14.440;2024-01-25T04:30:01;94283.00;;;11.90
41593;BMP180;28026;48.562;14.440;2024-01-25T04:32:34;94280.00;;;11.90
41593;BMP180;28026;48.562;14.440;2024-01-25T04:35:05;94276.00;;;11.90
41593;BMP180;28026;48.562;14.440;2024-01-25T04:37:36;94257.00;;;11.80
41593;BMP180;28026;48.562;14.440;2024-01-25T04:40:08;94278.00;;;11.80
41593;BMP180;28026;48.562;14.440;2024-01-25T04:42:39;94281.00;;;11.90
41593;BMP180;28026;48.562;14.440;2024-01-25T04:45:10;94275.00;;;11.90
41593;BMP180;28026;48.562;14.440;2024-01-25T04:47:41;94278.00;;;11.80
41593;BMP180;28026;48.562;14.440;2024-01-25T04:50:12;94271.00;;;11.80
41593;BMP180;28026;48.562;14.440;2024-01-25T04:52:42;94273.00;;;11.80
41593;BMP180;28026;48.562;14.440;2024-01-25T04:55:13;94273.00;;;11.80
41593;BMP180;28026;48.562;14.440;2024-01-25T04:57:44;94273.00;;;11.80
41593;BMP180;28026;48.562;14.440;2024-01-25T05:00:16;94273.00;;;11.80
41593;BMP180;28026;48.562;14.440;2024-01-25T05:02:48;94262.00;;;11.80
41593;BMP180;28026;48.562;14.440;2024-01-25T05:05:19;94273.00;;;11.80
41593;BMP180;28026;48.562;14.440;2024-01-25T05:07:51;94288.00;;;11.80
41593;BMP180;28026;48.562;14.440;2024-01-25T05:10:21;94272.00;;;11.90
41593;BMP180;28026;48.562;14.440;2024-01-25T05:12:53;94279.00;;;11.80
41593;BMP180;28026;48.562;14.440;2024-01-25T05:15:24;94275.00;;;11.80
41593;BMP180;28026;48.562;14.440;2024-01-25T05:17:55;94266.00;;;11.80
41593;BMP180;28026;48.562;14.440;2024-01-25T05:20:26;94268.00;;;11.80
41593;BMP180;28026;48.562;14.440;2024-01-25T05:23:03;94280.00;;;11.80
41593;BMP180;28026;48.562;14.440;2024-01-25T05:25:35;94285.00;;;11.80
41593;BMP180;28026;48.562;14.440;2024-01-25T05:28:06;94272.00;;;11.80
41593;BMP180;28026;48.562;14.440;2024-01-25T05:30:37;94272.00;;;11.80
41593;BMP180;28026;48.562;14.440;2024-01-25T05:33:08;94279.00;;;11.80
41593;BMP180;28026;48.562;14.440;2024-01-25T05:35:39;94271.00;;;11.80
41593;BMP180;28026;48.562;14.440;2024-01-25T05:38:10;94276.00;;;11.80
41593;BMP180;28026;48.562;14.440;2024-01-25T05:40:51;94269.00;;;11.80
41593;BMP180;28026;48.562;14.440;2024-01-25T05:43:21;94281.00;;;11.80
41593;BMP180;28026;48.562;14.440;2024-01-25T05:45:52;94277.00;;;11.80
41593;BMP180;28026;48.562;14.440;2024-01-25T05:48:23;94312.00;;;11.80
41593;BMP180;28026;48.562;14.440;2024-01-25T05:50:54;94298.00;;;11.80
41593;BMP180;28026;48.562;14.440;2024-01-25T05:53:25;94304.00;;;11.80
41593;BMP180;28026;48.562;14.440;2024-01-25T05:55:56;94307.00;;;11.80
41593;BMP180;28026;48.562;14.440;2024-01-25T05:58:27;94317.00;;;11.80
41593;BMP180;28026;48.562;14.440;2024-01-25T06:00:58;94313.00;;;11.90
41593;BMP180;28026;48.562;14.440;2024-01-25T06:03:29;94335.00;;;11.90
41593;BMP180;28026;48.562;14.440;2024-01-25T06:06:00;94343.00;;;11.90
41593;BMP180;28026;48.562;14.440;2024-01-25T06:08:30;94354.00;;;11.90
41593;BMP180;28026;48.562;14.440;2024-01-25T06:11:01;94348.00;;;11.90
41593;BMP180;28026;48.562;14.440;2024-01-25T06:13:32;94339.00;;;11.90
41593;BMP180;28026;48.562;14.440;2024-01-25T06:16:03;94342.00;;;11.90
41593;BMP180;28026;48.562;14.440;2024-01-25T06:18:34;94348.00;;;11.80
41593;BMP180;28026;48.562;14.440;2024-01-25T06:21:05;94347.00;;;11.80
41593;BMP180;28026;48.562;14.440;2024-01-25T06:23:36;94331.00;;;11.80
41593;BMP180;28026;48.562;14.440;2024-01-25T06:26:07;94322.00;;;11.70
41593;BMP180;28026;48.562;14.440;2024-01-25T06:28:38;94338.00;;;11.70
41593;BMP180;28026;48.562;14.440;2024-01-25T06:31:09;94321.00;;;11.70
41593;BMP180;28026;48.562;14.440;2024-01-25T06:33:40;94328.00;;;11.70
41593;BMP180;28026;48.562;14.440;2024-01-25T06:36:11;94332.00;;;11.70
41593;BMP180;28026;48.562;14.440;2024-01-25T06:38:41;94334.00;;;11.70
41593;BMP180;28026;48.562;14.440;2024-01-25T06:41:13;94331.00;;;11.60
41593;BMP180;28026;48.562;14.440;2024-01-25T06:43:44;94330.00;;;11.60
41593;BMP180;28026;48.562;14.440;2024-01-25T06:46:14;94322.00;;;11.60
41593;BMP180;28026;48.562;14.440;2024-01-25T06:48:45;94346.00;;;11.60
41593;BMP180;28026;48.562;14.440;2024-01-25T06:51:16;94355.00;;;11.60
41593;BMP180;28026;48.562;14.440;2024-01-25T06:53:47;94355.00;;;11.60
41593;BMP180;28026;48.562;14.440;2024-01-25T06:56:18;94361.00;;;11.60
41593;BMP180;28026;48.562;14.440;2024-01-25T06:58:49;94359.00;;;11.60
41593;BMP180;28026;48.562;14.440;2024-01-25T07:01:21;94355.00;;;11.60
41593;BMP180;28026;48.562;14.440;2024-01-25T07:03:53;94364.00;;;11.50
41593;BMP180;28026;48.562;14.440;2024-01-25T07:06:23;94372.00;;;11.50
41593;BMP180;28026;48.562;14.440;2024-01-25T07:08:55;94382.00;;;11.50
41593;BMP180;28026;48.562;14.440;2024-01-25T07:11:26;94392.00;;;11.50
41593;BMP180;28026;48.562;14.440;2024-01-25T07:13:56;94399.00;;;11.50
41593;BMP180;28026;48.562;14.440;2024-01-25T07:16:27;94402.00;;;11.50
41593;BMP180;28026;48.562;14.440;2024-01-25T07:19:01;94400.00;;;11.50
41593;BMP180;28026;48.562;14.440;2024-01-25T07:21:31;94404.00;;;11.50
41593;BMP180;28026;48.562;14.440;2024-01-25T07:24:03;94416.00;;;11.50
41593;BMP180;28026;48.562;14.440;2024-01-25T07:26:35;94427.00;;;11.50
41593;BMP180;28026;48.562;14.440;2024-01-25T07:29:07;94418.00;;;11.50
41593;BMP180;28026;48.562;14.440;2024-01-25T07:31:37;94428.00;;;11.60
41593;BMP180;28026;48.562;14.440;2024-01-25T07:34:08;94419.00;;;11.60
41593;BMP180;28026;48.562;14.440;2024-01-25T07:36:39;94412.00;;;11.70
41593;BMP180;28026;48.562;14.440;2024-01-25T07:39:10;94417.00;;;11.60
41593;BMP180;28026;48.562;14.440;2024-01-25T07:41:42;94428.00;;;11.70
41593;BMP180;28026;48.562;14.440;2024-01-25T07:44:13;94422.00;;;11.70
41593;BMP180;28026;48.562;14.440;2024-01-25T07:46:44;94419.00;;;11.60
41593;BMP180;28026;48.562;14.440;2024-01-25T07:49:14;94419.00;;;11.60
41593;BMP180;28026;48.562;14.440;2024-01-25T07:51:45;94418.00;;;11.60
41593;BMP180;28026;48.562;14.440;2024-01-25T07:54:17;94422.00;;;11.60
41593;BMP180;28026;48.562;14.440;2024-01-25T07:56:48;94418.00;;;11.60
41593;BMP180;28026;48.562;14.440;2024-01-25T07:59:19;94422.00;;;11.60
41593;BMP180;28026;48.562;14.440;2024-01-25T08:01:50;94423.00;;;11.60
41593;BMP180;28026;48.562;14.440;2024-01-25T08:04:21;94424.00;;;11.70
41593;BMP180;28026;48.562;14.440;2024-01-25T08:06:52;94424.00;;;11.70
41593;BMP180;28026;48.562;14.440;2024-01-25T08:09:23;94441.00;;;11.70
41593;BMP180;28026;48.562;14.440;2024-01-25T08:11:54;94434.00;;;11.70
41593;BMP180;28026;48.562;14.440;2024-01-25T08:14:25;94434.00;;;11.70
41593;BMP180;28026;48.562;14.440;2024-01-25T08:16:56;94448.00;;;11.80
41593;BMP180;28026;48.562;14.440;2024-01-25T08:19:27;94449.00;;;11.80
41593;BMP180;28026;48.562;14.440;2024-01-25T08:21:58;94449.00;;;11.80
41593;BMP180;28026;48.562;14.440;2024-01-25T08:24:29;94443.00;;;11.80
41593;BMP180;28026;48.562;14.440;2024-01-25T08:27:01;94446.00;;;11.80
41593;BMP180;28026;48.562;14.440;2024-01-25T08:29:32;94443.00;;;11.80
41593;BMP180;28026;48.562;14.440;2024-01-25T08:32:03;94452.00;;;11.80
41593;BMP180;28026;48.562;14.440;2024-01-25T08:34:34;94448.00;;;11.90
41593;BMP180;28026;48.562;14.440;2024-01-25T08:37:05;94450.00;;;11.90
41593;BMP180;28026;48.562;14.440;2024-01-25T08:39:36;94456.00;;;11.90
41593;BMP180;28026;48.562;14.440;2024-01-25T08:42:07;94453.00;;;11.90
41593;BMP180;28026;48.562;14.440;2024-01-25T08:44:38;94458.00;;;11.90
41593;BMP180;28026;48.562;14.440;2024-01-25T08:47:10;94470.00;;;11.90
41593;BMP180;28026;48.562;14.440;2024-01-25T08:49:41;94465.00;;;12.00
41593;BMP180;28026;48.562;14.440;2024-01-25T08:52:11;94474.00;;;12.00
41593;BMP180;28026;48.562;14.440;2024-01-25T08:54:42;94484.00;;;12.00
41593;BMP180;28026;48.562;14.440;2024-01-25T08:57:14;94480.00;;;12.10
41593;BMP180;28026;48.562;14.440;2024-01-25T08:59:46;94482.00;;;12.10
41593;BMP180;28026;48.562;14.440;2024-01-25T09:02:17;94472.00;;;12.10
41593;BMP180;28026;48.562;14.440;2024-01-25T09:04:49;94478.00;;;12.10
41593;BMP180;28026;48.562;14.440;2024-01-25T09:07:20;94484.00;;;12.10
41593;BMP180;28026;48.562;14.440;2024-01-25T09:09:51;94485.00;;;12.10
41593;BMP180;28026;48.562;14.440;2024-01-25T09:12:22;94493.00;;;12.10
41593;BMP180;28026;48.562;14.440;2024-01-25T09:14:53;94497.00;;;12.20
41593;BMP180;28026;48.562;14.440;2024-01-25T09:17:24;94509.00;;;12.30
41593;BMP180;28026;48.562;14.440;2024-01-25T09:19:55;94501.00;;;12.30
41593;BMP180;28026;48.562;14.440;2024-01-25T09:22:29;94502.00;;;12.30
41593;BMP180;28026;48.562;14.440;2024-01-25T09:25:00;94513.00;;;12.30
41593;BMP180;28026;48.562;14.440;2024-01-25T09:27:31;94516.00;;;12.30
41593;BMP180;28026;48.562;14.440;2024-01-25T09:30:02;94514.00;;;12.40
41593;BMP180;28026;48.562;14.440;2024-01-25T09:32:32;94521.00;;;12.50
41593;BMP180;28026;48.562;14.440;2024-01-25T09:35:04;94517.00;;;12.40
41593;BMP180;28026;48.562;14.440;2024-01-25T09:37:35;94508.00;;;12.40
41593;BMP180;28026;48.562;14.440;2024-01-25T09:40:07;94530.00;;;12.50
41593;BMP180;28026;48.562;14.440;2024-01-25T09:42:38;94527.00;;;12.50
41593;BMP180;28026;48.562;14.440;2024-01-25T09:45:16;94535.00;;;12.60
41593;BMP180;28026;48.562;14.440;2024-01-25T09:47:48;94531.00;;;12.60
41593;BMP180;28026;48.562;14.440;2024-01-25T09:50:19;94534.00;;;12.70
41593;BMP180;28026;48.562;14.440;2024-01-25T09:52:54;94531.00;;;12.60
41593;BMP180;28026;48.562;14.440;2024-01-25T09:55:27;94545.00;;;12.60
41593;BMP180;28026;48.562;14.440;2024-01-25T09:57:58;94534.00;;;12.70
41593;BMP180;28026;48.562;14.440;2024-01-25T10:00:28;94531.00;;;12.70
41593;BMP180;28026;48.562;14.440;2024-01-25T10:02:59;94530.00;;;12.80
41593;BMP180;28026;48.562;14.440;2024-01-25T10:05:30;94538.00;;;12.80
41593;BMP180;28026;48.562;14.440;2024-01-25T10:08:01;94524.00;;;13.00
41593;BMP180;28026;48.562;14.440;2024-01-25T10:10:32;94529.00;;;13.00
41593;BMP180;28026;48.562;14.440;2024-01-25T10:13:05;94537.00;;;13.00
41593;BMP180;28026;48.562;14.440;2024-01-25T10:15:36;94530.00;;;12.90
41593;BMP180;28026;48.562;14.440;2024-01-25T10:18:08;94548.00;;;13.00
41593;BMP180;28026;48.562;14.440;2024-01-25T10:20:43;94547.00;;;12.90
41593;BMP180;28026;48.562;14.440;2024-01-25T10:23:14;94545.00;;;12.80
41593;BMP180;28026;48.562;14.440;2024-01-25T10:25:46;94532.00;;;12.90
41593;BMP180;28026;48.562;14.440;2024-01-25T10:28:17;94548.00;;;13.10
41593;BMP180;28026;48.562;14.440;2024-01-25T10:30:50;94545.00;;;13.10
41593;BMP180;28026;48.562;14.440;2024-01-25T10:33:21;94527.00;;;13.20
41593;BMP180;28026;48.562;14.440;2024-01-25T10:36:01;94544.00;;;13.20
41593;BMP180;28026;48.562;14.440;2024-01-25T10:38:35;94540.00;;;13.20
41593;BMP180;28026;48.562;14.440;2024-01-25T10:41:06;94540.00;;;13.30
41593;BMP180;28026;48.562;14.440;2024-01-25T10:43:37;94544.00;;;13.30
41593;BMP180;28026;48.562;14.440;2024-01-25T10:46:09;94540.00;;;13.20
41593;BMP180;28026;48.562;14.440;2024-01-25T10:48:42;94527.00;;;13.20
41593;BMP180;28026;48.562;14.440;2024-01-25T10:51:14;94519.00;;;13.10
41593;BMP180;28026;48.562;14.440;2024-01-25T10:53:49;94537.00;;;13.10
41593;BMP180;28026;48.562;14.440;2024-01-25T10:56:21;94529.00;;;13.00
41593;BMP180;28026;48.562;14.440;2024-01-25T10:58:52;94517.00;;;12.90
41593;BMP180;28026;48.562;14.440;2024-01-25T11:01:24;94528.00;;;12.90
41593;BMP180;28026;48.562;14.440;2024-01-25T11:03:55;94517.00;;;12.90
41593;BMP180;28026;48.562;14.440;2024-01-25T11:06:28;94523.00;;;12.90
41593;BMP180;28026;48.562;14.440;2024-01-25T11:09:06;94507.00;;;13.00
41593;BMP180;28026;48.562;14.440;2024-01-25T11:11:44;94505.00;;;12.90
41593;BMP180;28026;48.562;14.440;2024-01-25T11:14:19;94505.00;;;13.00
41593;BMP180;28026;48.562;14.440;2024-01-25T11:16:50;94507.00;;;13.10
41593;BMP180;28026;48.562;14.440;2024-01-25T11:19:22;94515.00;;;13.10
41593;BMP180;28026;48.562;14.440;2024-01-25T11:21:53;94519.00;;;13.10
41593;BMP180;28026;48.562;14.440;2024-01-25T11:24:25;94513.00;;;13.20
41593;BMP180;28026;48.562;14.440;2024-01-25T11:27:00;94519.00;;;13.30
41593;BMP180;28026;48.562;14.440;2024-01-25T11:29:32;94511.00;;;13.30
41593;BMP180;28026;48.562;14.440;2024-01-25T11:32:04;94530.00;;;13.40
41593;BMP180;28026;48.562;14.440;2024-01-25T11:34:36;94520.00;;;13.40
41593;BMP180;28026;48.562;14.440;2024-01-25T11:37:07;94521.00;;;13.40
41593;BMP180;28026;48.562;14.440;2024-01-25T11:39:37;94503.00;;;13.60
41593;BMP180;28026;48.562;14.440;2024-01-25T11:42:08;94510.00;;;13.50
41593;BMP180;28026;48.562;14.440;2024-01-25T11:44:39;94512.00;;;13.40
41593;BMP180;28026;48.562;14.440;2024-01-25T11:47:10;94510.00;;;13.40
41593;BMP180;28026;48.562;14.440;2024-01-25T11:49:41;94508.00;;;13.50
41593;BMP180;28026;48.562;14.440;2024-01-25T11:52:12;94506.00;;;13.60
41593;BMP180;28026;48.562;14.440;2024-01-25T11:54:43;94511.00;;;13.80
41593;BMP180;28026;48.562;14.440;2024-01-25T11:57:15;94503.00;;;13.90
41593;BMP180;28026;48.562;14.440;2024-01-25T11:59:46;94510.00;;;14.00
41593;BMP180;28026;48.562;14.440;2024-01-25T12:02:17;94506.00;;;14.00
41593;BMP180;28026;48.562;14.440;2024-01-25T12:04:49;94510.00;;;13.90
41593;BMP180;28026;48.562;14.440;2024-01-25T12:07:21;94512.00;;;13.90
41593;BMP180;28026;48.562;14.440;2024-01-25T12:10:03;94504.00;;;14.00
41593;BMP180;28026;48.562;14.440;2024-01-25T12:12:37;94516.00;;;14.00
41593;BMP180;28026;48.562;14.440;2024-01-25T12:15:11;94514.00;;;13.90
41593;BMP180;28026;48.562;14.440;2024-01-25T12:17:42;94511.00;;;13.80
41593;BMP180;28026;48.562;14.440;2024-01-25T12:20:13;94499.00;;;13.70
41593;BMP180;28026;48.562;14.440;2024-01-25T12:22:48;94501.00;;;13.80
41593;BMP180;28026;48.562;14.440;2024-01-25T12:25:19;94502.00;;;13.80
41593;BMP180;28026;48.562;14.440;2024-01-25T12:27:50;94488.00;;;13.80
41593;BMP180;28026;48.562;14.440;2024-01-25T12:30:21;94470.00;;;13.70
41593;BMP180;28026;48.562;14.440;2024-01-25T12:32:51;94487.00;;;13.50
41593;BMP180;28026;48.562;14.440;2024-01-25T12:35:22;94491.00;;;13.30
41593;BMP180;28026;48.562;14.440;2024-01-25T12:37:53;94493.00;;;13.20
41593;BMP180;28026;48.562;14.440;2024-01-25T12:40:24;94486.00;;;13.30
41593;BMP180;28026;48.562;14.440;2024-01-25T12:42:55;94469.00;;;13.50
41593;BMP180;28026;48.562;14.440;2024-01-25T12:45:26;94480.00;;;13.50
41593;BMP180;28026;48.562;14.440;2024-01-25T12:47:56;94484.00;;;13.50
41593;BMP180;28026;48.562;14.440;2024-01-25T12:50:27;94482.00;;;13.50
41593;BMP180;28026;48.562;14.440;2024-01-25T12:52:58;94489.00;;;13.30
41593;BMP180;28026;48.562;14.440;2024-01-25T12:55:30;94490.00;;;13.30
41593;BMP180;28026;48.562;14.440;2024-01-25T12:58:02;94485.00;;;13.30
41593;BMP180;28026;48.562;14.440;2024-01-25T13:25:24;94464.00;;;13.00
41593;BMP180;28026;48.562;14.440;2024-01-25T13:27:55;94474.00;;;13.10
41593;BMP180;28026;48.562;14.440;2024-01-25T13:30:26;94462.00;;;13.30
41593;BMP180;28026;48.562;14.440;2024-01-25T13:32:57;94475.00;;;13.40
41593;BMP180;28026;48.562;14.440;2024-01-25T13:35:28;94463.00;;;13.50
41593;BMP180;28026;48.562;14.440;2024-01-25T13:37:59;94462.00;;;13.70
41593;BMP180;28026;48.562;14.440;2024-01-25T13:40:32;94471.00;;;13.80
41593;BMP180;28026;48.562;14.440;2024-01-25T13:43:03;94466.00;;;13.80
41593;BMP180;28026;48.562;14.440;2024-01-25T13:45:34;94474.00;;;13.80
41593;BMP180;28026;48.562;14.440;2024-01-25T13:48:05;94471.00;;;13.80
41593;BMP180;28026;48.562;14.440;2024-01-25T13:50:36;94463.00;;;13.90
41593;BMP180;28026;48.562;14.440;2024-01-25T13:53:07;94467.00;;;13.90
41593;BMP180;28026;48.562;14.440;2024-01-25T13:55:38;94465.00;;;13.90
41593;BMP180;28026;48.562;14.440;2024-01-25T13:58:09;94463.00;;;13.90
41593;BMP180;28026;48.562;14.440;2024-01-25T14:00:40;94469.00;;;13.90
41593;BMP180;28026;48.562;14.440;2024-01-25T14:03:11;94472.00;;;13.80
41593;BMP180;28026;48.562;14.440;2024-01-25T14:05:42;94464.00;;;13.80
41593;BMP180;28026;48.562;14.440;2024-01-25T14:08:13;94458.00;;;13.70
41593;BMP180;28026;48.562;14.440;2024-01-25T14:10:44;94481.00;;;13.70
41593;BMP180;28026;48.562;14.440;2024-01-25T14:13:15;94477.00;;;13.70
41593;BMP180;28026;48.562;14.440;2024-01-25T14:15:46;94471.00;;;13.70
41593;BMP180;28026;48.562;14.440;2024-01-25T14:18:17;94484.00;;;13.70
41593;BMP180;28026;48.562;14.440;2024-01-25T14:20:48;94491.00;;;13.70
41593;BMP180;28026;48.562;14.440;2024-01-25T14:23:19;94489.00;;;13.70
41593;BMP180;28026;48.562;14.440;2024-01-25T14:25:49;94498.00;;;13.70
41593;BMP180;28026;48.562;14.440;2024-01-25T14:28:21;94496.00;;;13.60
41593;BMP180;28026;48.562;14.440;2024-01-25T14:30:52;94496.00;;;13.60
41593;BMP180;28026;48.562;14.440;2024-01-25T14:33:22;94499.00;;;13.50
41593;BMP180;28026;48.562;14.440;2024-01-25T14:35:53;94495.00;;;13.30
41593;BMP180;28026;48.562;14.440;2024-01-25T14:38:24;94505.00;;;13.20
41593;BMP180;28026;48.562;14.440;2024-01-25T14:40:55;94503.00;;;13.00
41593;BMP180;28026;48.562;14.440;2024-01-25T14:43:26;94495.00;;;12.90
41593;BMP180;28026;48.562;14.440;2024-01-25T14:45:57;94502.00;;;12.80